createdAt,value
2023-05-26T00:00:05.000Z,83.0
2023-05-26T00:00:20.000Z,83.0
2023-05-26T00:00:35.000Z,83.0
2023-05-26T00:00:50.000Z,83.0
2023-05-26T00:01:05.000Z,83.0
2023-05-26T00:01:20.000Z,83.0
2023-05-26T00:01:35.000Z,83.0
2023-05-26T00:01:49.000Z,83.0
2023-05-26T00:02:04.000Z,83.0
2023-05-26T00:02:19.000Z,83.0
2023-05-26T00:02:34.000Z,84.0
2023-05-26T00:02:49.000Z,84.0
2023-05-26T00:03:04.000Z,84.0
2023-05-26T00:03:19.000Z,84.0
2023-05-26T00:03:34.000Z,84.0
2023-05-26T00:03:49.000Z,84.0
2023-05-26T00:04:05.000Z,84.0
2023-05-26T00:04:20.000Z,84.0
2023-05-26T00:04:35.000Z,84.0
2023-05-26T00:04:50.000Z,84.0
2023-05-26T00:05:05.000Z,84.0
2023-05-26T00:05:20.000Z,84.0
2023-05-26T00:05:35.000Z,84.0
2023-05-26T00:05:50.000Z,85.0
2023-05-26T00:06:05.000Z,85.0
2023-05-26T00:06:20.000Z,85.0
2023-05-26T00:06:35.000Z,85.0
2023-05-26T00:06:50.000Z,85.0
2023-05-26T00:07:05.000Z,85.0
2023-05-26T00:07:20.000Z,85.0
2023-05-26T00:07:35.000Z,85.0
2023-05-26T00:07:50.000Z,85.0
2023-05-26T00:08:04.000Z,85.0
2023-05-26T00:08:19.000Z,85.0
2023-05-26T00:08:34.000Z,85.0
2023-05-26T00:08:49.000Z,85.0
2023-05-26T00:09:04.000Z,85.0
2023-05-26T00:09:19.000Z,85.0
2023-05-26T00:09:34.000Z,85.0
2023-05-26T00:09:49.000Z,85.0
2023-05-26T00:10:04.000Z,85.0
2023-05-26T00:10:20.000Z,85.0
2023-05-26T00:10:35.000Z,85.0
2023-05-26T00:10:50.000Z,85.0
2023-05-26T00:11:05.000Z,85.0
2023-05-26T00:11:20.000Z,85.0
2023-05-26T00:11:35.000Z,85.0
2023-05-26T00:11:50.000Z,85.0
2023-05-26T00:12:05.000Z,85.0
2023-05-26T00:12:20.000Z,85.0
2023-05-26T00:12:35.000Z,85.0
2023-05-26T00:12:50.000Z,85.0
2023-05-26T00:13:05.000Z,85.0
2023-05-26T00:13:20.000Z,85.0
2023-05-26T00:13:35.000Z,85.0
2023-05-26T00:13:50.000Z,86.0
2023-05-26T00:14:05.000Z,86.0
2023-05-26T00:14:19.000Z,86.0
2023-05-26T00:14:34.000Z,86.0
2023-05-26T00:14:49.000Z,86.0
2023-05-26T00:15:04.000Z,86.0
2023-05-26T00:15:19.000Z,86.0
2023-05-26T00:15:34.000Z,86.0
2023-05-26T00:15:49.000Z,86.0
2023-05-26T00:16:04.000Z,86.0
2023-05-26T00:16:19.000Z,86.0
2023-05-26T00:16:35.000Z,86.0
2023-05-26T00:16:50.000Z,86.0
2023-05-26T00:17:05.000Z,86.0
2023-05-26T00:17:20.000Z,86.0
2023-05-26T00:17:35.000Z,86.0
2023-05-26T00:17:50.000Z,86.0
2023-05-26T00:18:05.000Z,86.0
2023-05-26T00:18:20.000Z,86.0
2023-05-26T00:18:35.000Z,86.0
2023-05-26T00:18:50.000Z,86.0
2023-05-26T00:19:05.000Z,86.0
2023-05-26T00:19:20.000Z,86.0
2023-05-26T00:19:35.000Z,86.0
2023-05-26T00:19:50.000Z,86.0
2023-05-26T00:20:05.000Z,86.0
2023-05-26T00:20:20.000Z,86.0
2023-05-26T00:20:35.000Z,86.0
2023-05-26T00:20:49.000Z,86.0
2023-05-26T00:21:04.000Z,86.0
2023-05-26T00:21:19.000Z,86.0
2023-05-26T00:21:34.000Z,86.0
2023-05-26T00:21:49.000Z,86.0
2023-05-26T00:22:04.000Z,86.0
2023-05-26T00:22:19.000Z,86.0
2023-05-26T00:22:34.000Z,86.0
2023-05-26T00:22:50.000Z,86.0
2023-05-26T00:23:05.000Z,86.0
2023-05-26T00:23:20.000Z,86.0
2023-05-26T00:23:35.000Z,86.0
2023-05-26T00:23:50.000Z,86.0
2023-05-26T00:24:05.000Z,86.0
2023-05-26T00:24:20.000Z,86.0
2023-05-26T00:24:35.000Z,86.0
2023-05-26T00:24:50.000Z,86.0
2023-05-26T00:25:05.000Z,86.0
2023-05-26T00:25:20.000Z,86.0
2023-05-26T00:25:35.000Z,86.0
2023-05-26T00:25:50.000Z,86.0
2023-05-26T00:26:05.000Z,86.0
2023-05-26T00:26:20.000Z,86.0
2023-05-26T00:26:35.000Z,86.0
2023-05-26T00:26:50.000Z,86.0
2023-05-26T00:27:04.000Z,86.0
2023-05-26T00:27:19.000Z,86.0
2023-05-26T00:27:34.000Z,86.0
2023-05-26T00:27:49.000Z,86.0
2023-05-26T00:28:04.000Z,86.0
2023-05-26T00:28:19.000Z,86.0
2023-05-26T00:28:34.000Z,86.0
2023-05-26T00:28:49.000Z,86.0
2023-05-26T00:29:04.000Z,86.0
2023-05-26T00:29:29.000Z,86.0
2023-05-26T00:29:35.000Z,86.0
2023-05-26T00:29:50.000Z,86.0
2023-05-26T00:30:05.000Z,86.0
2023-05-26T00:30:20.000Z,86.0
2023-05-26T00:30:35.000Z,86.0
2023-05-26T00:30:50.000Z,86.0
2023-05-26T00:31:05.000Z,86.0
2023-05-26T00:31:20.000Z,86.0
2023-05-26T00:31:35.000Z,86.0
2023-05-26T00:31:50.000Z,86.0
2023-05-26T00:32:05.000Z,86.0
2023-05-26T00:32:20.000Z,86.0
2023-05-26T00:32:35.000Z,86.0
2023-05-26T00:32:50.000Z,86.0
2023-05-26T00:33:05.000Z,86.0
2023-05-26T00:33:19.000Z,86.0
2023-05-26T00:33:34.000Z,86.0
2023-05-26T00:33:49.000Z,86.0
2023-05-26T00:34:04.000Z,86.0
2023-05-26T00:34:19.000Z,86.0
2023-05-26T00:34:34.000Z,86.0
2023-05-26T00:34:49.000Z,86.0
2023-05-26T00:35:04.000Z,86.0
2023-05-26T00:35:19.000Z,86.0
2023-05-26T00:35:35.000Z,86.0
2023-05-26T00:35:50.000Z,86.0
2023-05-26T00:36:05.000Z,86.0
2023-05-26T00:36:20.000Z,86.0
2023-05-26T00:36:35.000Z,87.0
2023-05-26T00:36:50.000Z,87.0
2023-05-26T00:37:05.000Z,87.0
2023-05-26T00:37:20.000Z,87.0
2023-05-26T00:37:35.000Z,87.0
2023-05-26T00:37:50.000Z,87.0
2023-05-26T00:38:05.000Z,87.0
2023-05-26T00:38:20.000Z,87.0
2023-05-26T00:38:35.000Z,87.0
2023-05-26T00:38:50.000Z,87.0
2023-05-26T00:39:05.000Z,87.0
2023-05-26T00:39:20.000Z,87.0
2023-05-26T00:39:34.000Z,87.0
2023-05-26T00:39:49.000Z,87.0
2023-05-26T00:40:04.000Z,87.0
2023-05-26T00:40:19.000Z,87.0
2023-05-26T00:40:34.000Z,87.0
2023-05-26T00:40:49.000Z,87.0
2023-05-26T00:41:04.000Z,88.0
2023-05-26T00:41:19.000Z,88.0
2023-05-26T00:41:34.000Z,88.0
2023-05-26T00:41:50.000Z,88.0
2023-05-26T00:42:05.000Z,88.0
2023-05-26T00:42:20.000Z,88.0
2023-05-26T00:42:35.000Z,88.0
2023-05-26T00:42:50.000Z,88.0
2023-05-26T00:43:05.000Z,88.0
2023-05-26T00:43:20.000Z,88.0
2023-05-26T00:43:35.000Z,88.0
2023-05-26T00:43:50.000Z,88.0
2023-05-26T00:44:05.000Z,88.0
2023-05-26T00:44:20.000Z,88.0
2023-05-26T00:44:35.000Z,88.0
2023-05-26T00:44:50.000Z,88.0
2023-05-26T00:45:05.000Z,88.0
2023-05-26T00:45:20.000Z,88.0
2023-05-26T00:45:35.000Z,88.0
2023-05-26T00:45:50.000Z,88.0
2023-05-26T00:46:04.000Z,88.0
2023-05-26T00:46:19.000Z,88.0
2023-05-26T00:46:34.000Z,88.0
2023-05-26T00:46:49.000Z,88.0
2023-05-26T00:47:04.000Z,88.0
2023-05-26T00:47:19.000Z,88.0
2023-05-26T00:47:34.000Z,88.0
2023-05-26T00:47:49.000Z,88.0
2023-05-26T00:48:05.000Z,87.0
2023-05-26T00:48:20.000Z,87.0
2023-05-26T00:48:35.000Z,87.0
2023-05-26T00:48:50.000Z,87.0
2023-05-26T00:49:05.000Z,88.0
2023-05-26T00:49:20.000Z,88.0
2023-05-26T00:49:35.000Z,87.0
2023-05-26T00:49:50.000Z,87.0
2023-05-26T00:50:05.000Z,87.0
2023-05-26T00:50:20.000Z,87.0
2023-05-26T00:50:35.000Z,87.0
2023-05-26T00:50:50.000Z,87.0
2023-05-26T00:51:05.000Z,87.0
2023-05-26T00:51:20.000Z,87.0
2023-05-26T00:51:35.000Z,87.0
2023-05-26T00:51:50.000Z,87.0
2023-05-26T00:52:05.000Z,87.0
2023-05-26T00:52:19.000Z,87.0
2023-05-26T00:52:34.000Z,87.0
2023-05-26T00:52:49.000Z,87.0
2023-05-26T00:53:04.000Z,87.0
2023-05-26T00:53:19.000Z,87.0
2023-05-26T00:53:34.000Z,87.0
2023-05-26T00:53:49.000Z,87.0
2023-05-26T00:54:04.000Z,87.0
2023-05-26T00:54:19.000Z,87.0
2023-05-26T00:54:35.000Z,87.0
2023-05-26T00:54:50.000Z,87.0
2023-05-26T00:55:05.000Z,87.0
2023-05-26T00:55:20.000Z,87.0
2023-05-26T00:55:35.000Z,87.0
2023-05-26T00:55:50.000Z,87.0
2023-05-26T00:56:05.000Z,87.0
2023-05-26T00:56:20.000Z,87.0
2023-05-26T00:56:35.000Z,88.0
2023-05-26T00:56:50.000Z,88.0
2023-05-26T00:57:05.000Z,88.0
2023-05-26T00:57:20.000Z,88.0
2023-05-26T00:57:35.000Z,88.0
2023-05-26T00:57:50.000Z,88.0
2023-05-26T00:58:05.000Z,88.0
2023-05-26T00:58:20.000Z,88.0
2023-05-26T00:58:34.000Z,88.0
2023-05-26T00:58:49.000Z,88.0
2023-05-26T00:59:04.000Z,88.0
2023-05-26T00:59:19.000Z,88.0
2023-05-26T00:59:34.000Z,88.0
2023-05-26T00:59:49.000Z,88.0
2023-05-26T01:00:04.000Z,88.0
2023-05-26T01:00:19.000Z,88.0
2023-05-26T01:00:34.000Z,88.0
2023-05-26T01:00:50.000Z,88.0
2023-05-26T01:01:05.000Z,88.0
2023-05-26T01:01:20.000Z,88.0
2023-05-26T01:01:35.000Z,88.0
2023-05-26T01:01:50.000Z,88.0
2023-05-26T01:02:05.000Z,88.0
2023-05-26T01:02:20.000Z,88.0
2023-05-26T01:02:35.000Z,88.0
2023-05-26T01:02:50.000Z,88.0
2023-05-26T01:03:05.000Z,88.0
2023-05-26T01:03:20.000Z,88.0
2023-05-26T01:03:35.000Z,88.0
2023-05-26T01:03:50.000Z,88.0
2023-05-26T01:04:05.000Z,88.0
2023-05-26T01:04:20.000Z,88.0
2023-05-26T01:04:35.000Z,88.0
2023-05-26T01:04:50.000Z,88.0
2023-05-26T01:05:04.000Z,88.0
2023-05-26T01:05:19.000Z,87.0
2023-05-26T01:05:34.000Z,87.0
2023-05-26T01:05:49.000Z,87.0
2023-05-26T01:06:04.000Z,87.0
2023-05-26T01:06:19.000Z,87.0
2023-05-26T01:06:34.000Z,87.0
2023-05-26T01:06:49.000Z,87.0
2023-05-26T01:07:04.000Z,87.0
2023-05-26T01:07:20.000Z,87.0
2023-05-26T01:07:35.000Z,87.0
2023-05-26T01:07:50.000Z,87.0
2023-05-26T01:08:05.000Z,87.0
2023-05-26T01:08:20.000Z,87.0
2023-05-26T01:08:35.000Z,87.0
2023-05-26T01:08:50.000Z,87.0
2023-05-26T01:09:05.000Z,88.0
2023-05-26T01:09:20.000Z,88.0
2023-05-26T01:09:35.000Z,87.0
2023-05-26T01:09:50.000Z,87.0
2023-05-26T01:10:05.000Z,87.0
2023-05-26T01:10:20.000Z,87.0
2023-05-26T01:10:35.000Z,88.0
2023-05-26T01:10:50.000Z,87.0
2023-05-26T01:11:05.000Z,87.0
2023-05-26T01:11:19.000Z,88.0
2023-05-26T01:11:34.000Z,88.0
2023-05-26T01:11:49.000Z,88.0
2023-05-26T01:12:04.000Z,87.0
2023-05-26T01:12:19.000Z,87.0
2023-05-26T01:12:34.000Z,88.0
2023-05-26T01:12:49.000Z,88.0
2023-05-26T01:13:04.000Z,88.0
2023-05-26T01:13:19.000Z,88.0
2023-05-26T01:13:35.000Z,88.0
2023-05-26T01:13:50.000Z,88.0
2023-05-26T01:14:05.000Z,88.0
2023-05-26T01:14:20.000Z,87.0
2023-05-26T01:14:35.000Z,87.0
2023-05-26T01:14:50.000Z,87.0
2023-05-26T01:15:05.000Z,87.0
2023-05-26T01:15:20.000Z,87.0
2023-05-26T01:15:35.000Z,87.0
2023-05-26T01:15:50.000Z,87.0
2023-05-26T01:16:05.000Z,87.0
2023-05-26T01:16:20.000Z,87.0
2023-05-26T01:16:35.000Z,87.0
2023-05-26T01:16:50.000Z,87.0
2023-05-26T01:17:05.000Z,87.0
2023-05-26T01:17:20.000Z,87.0
2023-05-26T01:17:35.000Z,87.0
2023-05-26T01:17:49.000Z,87.0
2023-05-26T01:18:04.000Z,87.0
2023-05-26T01:18:19.000Z,87.0
2023-05-26T01:18:34.000Z,87.0
2023-05-26T01:18:49.000Z,87.0
2023-05-26T01:19:04.000Z,87.0
2023-05-26T01:19:19.000Z,87.0
2023-05-26T01:19:34.000Z,87.0
2023-05-26T01:19:49.000Z,87.0
2023-05-26T01:20:05.000Z,87.0
2023-05-26T01:20:20.000Z,87.0
2023-05-26T01:20:35.000Z,87.0
2023-05-26T01:20:50.000Z,87.0
2023-05-26T01:21:05.000Z,86.0
2023-05-26T01:21:20.000Z,86.0
2023-05-26T01:21:35.000Z,86.0
2023-05-26T01:21:50.000Z,86.0
2023-05-26T01:22:05.000Z,86.0
2023-05-26T01:22:20.000Z,86.0
2023-05-26T01:22:35.000Z,86.0
2023-05-26T01:22:50.000Z,86.0
2023-05-26T01:23:05.000Z,86.0
2023-05-26T01:23:20.000Z,86.0
2023-05-26T01:23:35.000Z,86.0
2023-05-26T01:23:50.000Z,86.0
2023-05-26T01:24:04.000Z,86.0
2023-05-26T01:24:19.000Z,86.0
2023-05-26T01:24:34.000Z,86.0
2023-05-26T01:24:49.000Z,86.0
2023-05-26T01:25:04.000Z,86.0
2023-05-26T01:25:19.000Z,86.0
2023-05-26T01:25:34.000Z,86.0
2023-05-26T01:25:49.000Z,86.0
2023-05-26T01:26:04.000Z,87.0
2023-05-26T01:26:20.000Z,87.0
2023-05-26T01:26:35.000Z,87.0
2023-05-26T01:26:50.000Z,87.0
2023-05-26T01:27:05.000Z,87.0
2023-05-26T01:27:20.000Z,87.0
2023-05-26T01:27:35.000Z,87.0
2023-05-26T01:27:50.000Z,87.0
2023-05-26T01:28:05.000Z,87.0
2023-05-26T01:28:20.000Z,87.0
2023-05-26T01:28:35.000Z,88.0
2023-05-26T01:28:50.000Z,88.0
2023-05-26T01:29:05.000Z,88.0
2023-05-26T01:29:20.000Z,88.0
2023-05-26T01:29:35.000Z,88.0
2023-05-26T01:29:50.000Z,88.0
2023-05-26T01:30:05.000Z,88.0
2023-05-26T01:30:19.000Z,88.0
2023-05-26T01:30:34.000Z,88.0
2023-05-26T01:30:49.000Z,88.0
2023-05-26T01:31:04.000Z,88.0
2023-05-26T01:31:19.000Z,88.0
2023-05-26T01:31:34.000Z,88.0
2023-05-26T01:31:49.000Z,88.0
2023-05-26T01:32:04.000Z,88.0
2023-05-26T01:32:19.000Z,88.0
2023-05-26T01:32:35.000Z,88.0
2023-05-26T01:32:50.000Z,88.0
2023-05-26T01:33:05.000Z,88.0
2023-05-26T01:33:20.000Z,88.0
2023-05-26T01:33:35.000Z,88.0
2023-05-26T01:33:50.000Z,88.0
2023-05-26T01:34:05.000Z,88.0
2023-05-26T01:34:20.000Z,88.0
2023-05-26T01:34:35.000Z,88.0
2023-05-26T01:34:50.000Z,88.0
2023-05-26T01:35:05.000Z,88.0
2023-05-26T01:35:20.000Z,88.0
2023-05-26T01:35:35.000Z,88.0
2023-05-26T01:35:50.000Z,88.0
2023-05-26T01:36:05.000Z,88.0
2023-05-26T01:36:20.000Z,88.0
2023-05-26T01:36:35.000Z,88.0
2023-05-26T01:36:49.000Z,88.0
2023-05-26T01:37:04.000Z,88.0
2023-05-26T01:37:19.000Z,88.0
2023-05-26T01:37:34.000Z,89.0
2023-05-26T01:37:49.000Z,89.0
2023-05-26T01:38:04.000Z,89.0
2023-05-26T01:38:19.000Z,89.0
2023-05-26T01:38:34.000Z,89.0
2023-05-26T01:38:49.000Z,89.0
2023-05-26T01:39:05.000Z,89.0
2023-05-26T01:39:20.000Z,89.0
2023-05-26T01:39:35.000Z,89.0
2023-05-26T01:39:50.000Z,89.0
2023-05-26T01:40:05.000Z,89.0
2023-05-26T01:40:20.000Z,89.0
2023-05-26T01:40:35.000Z,89.0
2023-05-26T01:40:50.000Z,89.0
2023-05-26T01:41:05.000Z,89.0
2023-05-26T01:41:20.000Z,89.0
2023-05-26T01:41:35.000Z,89.0
2023-05-26T01:41:50.000Z,89.0
2023-05-26T01:42:05.000Z,89.0
2023-05-26T01:42:20.000Z,89.0
2023-05-26T01:42:35.000Z,89.0
2023-05-26T01:42:50.000Z,89.0
2023-05-26T01:43:05.000Z,89.0
2023-05-26T01:43:19.000Z,89.0
2023-05-26T01:43:34.000Z,89.0
2023-05-26T01:43:49.000Z,89.0
2023-05-26T01:44:04.000Z,89.0
2023-05-26T01:44:19.000Z,89.0
2023-05-26T01:44:34.000Z,89.0
2023-05-26T01:44:49.000Z,89.0
2023-05-26T01:45:04.000Z,89.0
2023-05-26T01:45:19.000Z,89.0
2023-05-26T01:45:35.000Z,89.0
2023-05-26T01:45:50.000Z,89.0
2023-05-26T01:46:05.000Z,89.0
2023-05-26T01:46:20.000Z,89.0
2023-05-26T01:46:35.000Z,89.0
2023-05-26T01:46:50.000Z,89.0
2023-05-26T01:47:05.000Z,89.0
2023-05-26T01:47:20.000Z,89.0
2023-05-26T01:47:35.000Z,89.0
2023-05-26T01:47:50.000Z,89.0
2023-05-26T01:48:05.000Z,89.0
2023-05-26T01:48:20.000Z,89.0
2023-05-26T01:48:35.000Z,90.0
2023-05-26T01:48:50.000Z,90.0
2023-05-26T01:49:05.000Z,90.0
2023-05-26T01:49:20.000Z,90.0
2023-05-26T01:49:34.000Z,89.0
2023-05-26T01:49:49.000Z,89.0
2023-05-26T01:50:04.000Z,89.0
2023-05-26T01:50:19.000Z,89.0
2023-05-26T01:50:34.000Z,89.0
2023-05-26T01:50:49.000Z,89.0
2023-05-26T01:51:04.000Z,90.0
2023-05-26T01:51:19.000Z,90.0
2023-05-26T01:51:34.000Z,90.0
2023-05-26T01:51:50.000Z,89.0
2023-05-26T01:52:05.000Z,89.0
2023-05-26T01:52:20.000Z,89.0
2023-05-26T01:52:35.000Z,89.0
2023-05-26T01:52:50.000Z,89.0
2023-05-26T01:53:05.000Z,89.0
2023-05-26T01:53:20.000Z,89.0
2023-05-26T01:53:35.000Z,89.0
2023-05-26T01:53:50.000Z,89.0
2023-05-26T01:54:05.000Z,89.0
2023-05-26T01:54:20.000Z,89.0
2023-05-26T01:54:35.000Z,89.0
2023-05-26T01:54:50.000Z,89.0
2023-05-26T01:55:05.000Z,89.0
2023-05-26T01:55:20.000Z,89.0
2023-05-26T01:55:35.000Z,89.0
2023-05-26T01:55:50.000Z,89.0
2023-05-26T01:56:04.000Z,89.0
2023-05-26T01:56:19.000Z,89.0
2023-05-26T01:56:34.000Z,89.0
2023-05-26T01:56:49.000Z,89.0
2023-05-26T01:57:04.000Z,89.0
2023-05-26T01:57:19.000Z,89.0
2023-05-26T01:57:34.000Z,89.0
2023-05-26T01:57:49.000Z,89.0
2023-05-26T01:58:04.000Z,89.0
2023-05-26T01:58:20.000Z,89.0
2023-05-26T01:58:35.000Z,89.0
2023-05-26T01:58:50.000Z,89.0
2023-05-26T01:59:05.000Z,89.0
2023-05-26T01:59:20.000Z,89.0
2023-05-26T01:59:35.000Z,89.0
2023-05-26T01:59:50.000Z,89.0
2023-05-26T02:00:05.000Z,89.0
2023-05-26T02:00:20.000Z,89.0
2023-05-26T02:00:35.000Z,89.0
2023-05-26T02:00:50.000Z,89.0
2023-05-26T02:01:05.000Z,89.0
2023-05-26T02:01:20.000Z,89.0
2023-05-26T02:01:35.000Z,89.0
2023-05-26T02:01:50.000Z,89.0
2023-05-26T02:02:05.000Z,89.0
2023-05-26T02:02:20.000Z,89.0
2023-05-26T02:02:34.000Z,89.0
2023-05-26T02:02:49.000Z,89.0
2023-05-26T02:03:04.000Z,89.0
2023-05-26T02:03:19.000Z,89.0
2023-05-26T02:03:34.000Z,89.0
2023-05-26T02:03:49.000Z,89.0
2023-05-26T02:04:04.000Z,89.0
2023-05-26T02:04:19.000Z,89.0
2023-05-26T02:04:34.000Z,89.0
2023-05-26T02:04:50.000Z,89.0
2023-05-26T02:05:05.000Z,89.0
2023-05-26T02:05:20.000Z,89.0
2023-05-26T02:05:35.000Z,89.0
2023-05-26T02:05:50.000Z,89.0
2023-05-26T02:06:05.000Z,89.0
2023-05-26T02:06:20.000Z,89.0
2023-05-26T02:06:35.000Z,89.0
2023-05-26T02:06:50.000Z,89.0
2023-05-26T02:07:05.000Z,89.0
2023-05-26T02:07:20.000Z,89.0
2023-05-26T02:07:35.000Z,89.0
2023-05-26T02:07:50.000Z,89.0
2023-05-26T02:08:05.000Z,89.0
2023-05-26T02:08:20.000Z,89.0
2023-05-26T02:08:35.000Z,89.0
2023-05-26T02:08:49.000Z,89.0
2023-05-26T02:09:04.000Z,89.0
2023-05-26T02:09:19.000Z,89.0
2023-05-26T02:09:34.000Z,89.0
2023-05-26T02:09:49.000Z,89.0
2023-05-26T02:10:04.000Z,89.0
2023-05-26T02:10:19.000Z,89.0
2023-05-26T02:10:34.000Z,89.0
2023-05-26T02:10:49.000Z,89.0
2023-05-26T02:11:05.000Z,89.0
2023-05-26T02:11:20.000Z,89.0
2023-05-26T02:11:35.000Z,89.0
2023-05-26T02:11:50.000Z,89.0
2023-05-26T02:12:05.000Z,89.0
2023-05-26T02:12:20.000Z,89.0
2023-05-26T02:12:35.000Z,89.0
2023-05-26T02:12:50.000Z,89.0
2023-05-26T02:13:05.000Z,89.0
2023-05-26T02:13:20.000Z,89.0
2023-05-26T02:13:35.000Z,89.0
2023-05-26T02:13:50.000Z,89.0
2023-05-26T02:14:05.000Z,89.0
2023-05-26T02:14:20.000Z,89.0
2023-05-26T02:14:35.000Z,89.0
2023-05-26T02:14:50.000Z,89.0
2023-05-26T02:15:05.000Z,89.0
2023-05-26T02:15:19.000Z,89.0
2023-05-26T02:15:34.000Z,89.0
2023-05-26T02:15:49.000Z,89.0
2023-05-26T02:16:04.000Z,89.0
2023-05-26T02:16:19.000Z,89.0
2023-05-26T02:16:34.000Z,89.0
2023-05-26T02:16:49.000Z,89.0
2023-05-26T02:17:04.000Z,89.0
2023-05-26T02:17:19.000Z,89.0
2023-05-26T02:17:35.000Z,89.0
2023-05-26T02:17:50.000Z,89.0
2023-05-26T02:18:05.000Z,89.0
2023-05-26T02:18:20.000Z,89.0
2023-05-26T02:18:35.000Z,89.0
2023-05-26T02:18:50.000Z,89.0
2023-05-26T02:19:05.000Z,89.0
2023-05-26T02:19:20.000Z,89.0
2023-05-26T02:19:35.000Z,89.0
2023-05-26T02:19:50.000Z,89.0
2023-05-26T02:20:05.000Z,89.0
2023-05-26T02:20:20.000Z,89.0
2023-05-26T02:20:35.000Z,89.0
2023-05-26T02:20:50.000Z,89.0
2023-05-26T02:21:05.000Z,89.0
2023-05-26T02:21:20.000Z,89.0
2023-05-26T02:21:35.000Z,89.0
2023-05-26T02:21:49.000Z,89.0
2023-05-26T02:22:04.000Z,89.0
2023-05-26T02:22:19.000Z,89.0
2023-05-26T02:22:34.000Z,89.0
2023-05-26T02:22:49.000Z,89.0
2023-05-26T02:23:04.000Z,89.0
2023-05-26T02:23:19.000Z,89.0
2023-05-26T02:23:34.000Z,89.0
2023-05-26T02:23:50.000Z,89.0
2023-05-26T02:24:05.000Z,89.0
2023-05-26T02:24:20.000Z,89.0
2023-05-26T02:24:35.000Z,89.0
2023-05-26T02:24:50.000Z,89.0
2023-05-26T02:25:05.000Z,89.0
2023-05-26T02:25:20.000Z,89.0
2023-05-26T02:25:35.000Z,89.0
2023-05-26T02:25:50.000Z,89.0
2023-05-26T02:26:05.000Z,89.0
2023-05-26T02:26:20.000Z,89.0
2023-05-26T02:26:35.000Z,89.0
2023-05-26T02:26:50.000Z,89.0
2023-05-26T02:27:05.000Z,89.0
2023-05-26T02:27:20.000Z,89.0
2023-05-26T02:27:35.000Z,89.0
2023-05-26T02:27:50.000Z,89.0
2023-05-26T02:28:04.000Z,89.0
2023-05-26T02:28:19.000Z,89.0
2023-05-26T02:28:34.000Z,89.0
2023-05-26T02:28:49.000Z,89.0
2023-05-26T02:29:04.000Z,89.0
2023-05-26T02:29:19.000Z,89.0
2023-05-26T02:29:34.000Z,89.0
2023-05-26T02:29:49.000Z,89.0
2023-05-26T02:30:04.000Z,89.0
2023-05-26T02:30:20.000Z,89.0
2023-05-26T02:30:35.000Z,89.0
2023-05-26T02:30:50.000Z,89.0
2023-05-26T02:31:05.000Z,89.0
2023-05-26T02:31:20.000Z,89.0
2023-05-26T02:31:35.000Z,89.0
2023-05-26T02:31:50.000Z,89.0
2023-05-26T02:32:05.000Z,89.0
2023-05-26T02:32:20.000Z,89.0
2023-05-26T02:32:35.000Z,89.0
2023-05-26T02:32:50.000Z,89.0
2023-05-26T02:33:05.000Z,89.0
2023-05-26T02:33:20.000Z,89.0
2023-05-26T02:33:35.000Z,89.0
2023-05-26T02:33:50.000Z,89.0
2023-05-26T02:34:05.000Z,89.0
2023-05-26T02:34:20.000Z,89.0
2023-05-26T02:34:34.000Z,89.0
2023-05-26T02:34:49.000Z,89.0
2023-05-26T02:35:04.000Z,89.0
2023-05-26T02:35:19.000Z,89.0
2023-05-26T02:35:34.000Z,89.0
2023-05-26T02:35:49.000Z,89.0
2023-05-26T02:36:04.000Z,89.0
2023-05-26T02:36:19.000Z,89.0
2023-05-26T02:36:34.000Z,89.0
2023-05-26T02:36:50.000Z,89.0
2023-05-26T02:37:05.000Z,89.0
2023-05-26T02:37:20.000Z,89.0
2023-05-26T02:37:35.000Z,89.0
2023-05-26T02:37:50.000Z,89.0
2023-05-26T02:38:05.000Z,89.0
2023-05-26T02:38:20.000Z,89.0
2023-05-26T02:38:35.000Z,90.0
2023-05-26T02:38:50.000Z,90.0
2023-05-26T02:39:05.000Z,90.0
2023-05-26T02:39:20.000Z,90.0
2023-05-26T02:39:35.000Z,90.0
2023-05-26T02:39:50.000Z,90.0
2023-05-26T02:40:05.000Z,90.0
2023-05-26T02:40:20.000Z,90.0
2023-05-26T02:40:35.000Z,90.0
2023-05-26T02:40:50.000Z,90.0
2023-05-26T02:41:04.000Z,90.0
2023-05-26T02:41:19.000Z,90.0
2023-05-26T02:41:34.000Z,90.0
2023-05-26T02:41:49.000Z,90.0
2023-05-26T02:42:04.000Z,90.0
2023-05-26T02:42:19.000Z,90.0
2023-05-26T02:42:34.000Z,90.0
2023-05-26T02:42:49.000Z,90.0
2023-05-26T02:43:04.000Z,90.0
2023-05-26T02:43:20.000Z,90.0
2023-05-26T02:43:35.000Z,90.0
2023-05-26T02:43:50.000Z,90.0
2023-05-26T02:44:05.000Z,90.0
2023-05-26T02:44:20.000Z,90.0
2023-05-26T02:44:35.000Z,90.0
2023-05-26T02:44:50.000Z,90.0
2023-05-26T02:45:05.000Z,90.0
2023-05-26T02:45:20.000Z,90.0
2023-05-26T02:45:35.000Z,90.0
2023-05-26T02:45:50.000Z,90.0
2023-05-26T02:46:05.000Z,90.0
2023-05-26T02:46:20.000Z,90.0
2023-05-26T02:46:35.000Z,90.0
2023-05-26T02:46:50.000Z,90.0
2023-05-26T02:47:05.000Z,90.0
2023-05-26T02:47:20.000Z,90.0
2023-05-26T02:47:34.000Z,90.0
2023-05-26T02:47:49.000Z,90.0
2023-05-26T02:48:04.000Z,90.0
2023-05-26T02:48:19.000Z,90.0
2023-05-26T02:48:34.000Z,90.0
2023-05-26T02:48:49.000Z,90.0
2023-05-26T02:49:04.000Z,90.0
2023-05-26T02:49:19.000Z,90.0
2023-05-26T02:49:34.000Z,90.0
2023-05-26T02:49:50.000Z,90.0
2023-05-26T02:50:05.000Z,90.0
2023-05-26T02:50:20.000Z,90.0
2023-05-26T02:50:35.000Z,90.0
2023-05-26T02:50:50.000Z,90.0
2023-05-26T02:51:05.000Z,90.0
2023-05-26T02:51:20.000Z,90.0
2023-05-26T02:51:35.000Z,90.0
2023-05-26T02:51:50.000Z,90.0
2023-05-26T02:52:05.000Z,90.0
2023-05-26T02:52:20.000Z,90.0
2023-05-26T02:52:35.000Z,90.0
2023-05-26T02:52:50.000Z,90.0
2023-05-26T02:53:05.000Z,90.0
2023-05-26T02:53:20.000Z,90.0
2023-05-26T02:53:35.000Z,90.0
2023-05-26T02:53:49.000Z,90.0
2023-05-26T02:54:04.000Z,90.0
2023-05-26T02:54:19.000Z,90.0
2023-05-26T02:54:34.000Z,90.0
2023-05-26T02:54:49.000Z,90.0
2023-05-26T02:55:04.000Z,90.0
2023-05-26T02:55:19.000Z,90.0
2023-05-26T02:55:34.000Z,90.0
2023-05-26T02:55:49.000Z,90.0
2023-05-26T02:56:05.000Z,90.0
2023-05-26T02:56:20.000Z,90.0
2023-05-26T02:56:35.000Z,90.0
2023-05-26T02:56:50.000Z,90.0
2023-05-26T02:57:05.000Z,90.0
2023-05-26T02:57:20.000Z,90.0
2023-05-26T02:57:35.000Z,90.0
2023-05-26T02:57:50.000Z,90.0
2023-05-26T02:58:05.000Z,90.0
2023-05-26T02:58:20.000Z,90.0
2023-05-26T02:58:35.000Z,90.0
2023-05-26T02:58:50.000Z,90.0
2023-05-26T02:59:05.000Z,90.0
2023-05-26T02:59:20.000Z,90.0
2023-05-26T02:59:35.000Z,90.0
2023-05-26T02:59:50.000Z,90.0
2023-05-26T03:00:05.000Z,90.0
2023-05-26T03:00:19.000Z,90.0
2023-05-26T03:00:34.000Z,90.0
2023-05-26T03:00:49.000Z,90.0
2023-05-26T03:01:04.000Z,90.0
2023-05-26T03:01:19.000Z,90.0
2023-05-26T03:01:34.000Z,90.0
2023-05-26T03:01:49.000Z,90.0
2023-05-26T03:02:04.000Z,90.0
2023-05-26T03:02:19.000Z,90.0
2023-05-26T03:02:35.000Z,90.0
2023-05-26T03:02:50.000Z,89.0
2023-05-26T03:03:05.000Z,89.0
2023-05-26T03:03:20.000Z,89.0
2023-05-26T03:03:35.000Z,89.0
2023-05-26T03:03:50.000Z,89.0
2023-05-26T03:04:05.000Z,89.0
2023-05-26T03:04:20.000Z,89.0
2023-05-26T03:04:35.000Z,89.0
2023-05-26T03:04:50.000Z,89.0
2023-05-26T03:05:05.000Z,89.0
2023-05-26T03:05:20.000Z,89.0
2023-05-26T03:05:35.000Z,89.0
2023-05-26T03:05:50.000Z,89.0
2023-05-26T03:06:05.000Z,89.0
2023-05-26T03:06:20.000Z,89.0
2023-05-26T03:06:34.000Z,89.0
2023-05-26T03:06:49.000Z,89.0
2023-05-26T03:07:04.000Z,89.0
2023-05-26T03:07:19.000Z,89.0
2023-05-26T03:07:34.000Z,89.0
2023-05-26T03:07:49.000Z,89.0
2023-05-26T03:08:04.000Z,89.0
2023-05-26T03:08:19.000Z,89.0
2023-05-26T03:08:34.000Z,89.0
2023-05-26T03:08:49.000Z,89.0
2023-05-26T03:09:05.000Z,89.0
2023-05-26T03:09:20.000Z,89.0
2023-05-26T03:09:35.000Z,89.0
2023-05-26T03:09:50.000Z,89.0
2023-05-26T03:10:05.000Z,89.0
2023-05-26T03:10:20.000Z,89.0
2023-05-26T03:10:35.000Z,89.0
2023-05-26T03:10:50.000Z,89.0
2023-05-26T03:11:20.000Z,89.0
2023-05-26T03:11:35.000Z,89.0
2023-05-26T03:11:50.000Z,89.0
2023-05-26T03:12:05.000Z,89.0
2023-05-26T03:12:20.000Z,89.0
2023-05-26T03:12:35.000Z,89.0
2023-05-26T03:12:50.000Z,89.0
2023-05-26T03:13:04.000Z,89.0
2023-05-26T03:13:19.000Z,89.0
2023-05-26T03:13:34.000Z,89.0
2023-05-26T03:13:49.000Z,89.0
2023-05-26T03:14:04.000Z,89.0
2023-05-26T03:14:19.000Z,89.0
2023-05-26T03:14:34.000Z,89.0
2023-05-26T03:14:49.000Z,89.0
2023-05-26T03:15:04.000Z,89.0
2023-05-26T03:15:20.000Z,89.0
2023-05-26T03:15:35.000Z,89.0
2023-05-26T03:15:50.000Z,89.0
2023-05-26T03:16:05.000Z,89.0
2023-05-26T03:16:20.000Z,89.0
2023-05-26T03:16:35.000Z,89.0
2023-05-26T03:16:50.000Z,89.0
2023-05-26T03:17:05.000Z,89.0
2023-05-26T03:17:20.000Z,89.0
2023-05-26T03:17:35.000Z,89.0
2023-05-26T03:17:50.000Z,90.0
2023-05-26T03:18:05.000Z,90.0
2023-05-26T03:18:20.000Z,90.0
2023-05-26T03:18:35.000Z,90.0
2023-05-26T03:18:50.000Z,90.0
2023-05-26T03:19:05.000Z,90.0
2023-05-26T03:19:19.000Z,90.0
2023-05-26T03:19:34.000Z,90.0
2023-05-26T03:19:49.000Z,90.0